sensor_id;sensor_type;location;lat;lon;timestamp;P1;durP1;ratioP1;P2;durP2;ratioP2
11187;SDS011;5650;52.700;7.306;2022-08-19T00:00:26;8.15;;;6.22;;
11187;SDS011;5650;52.700;7.306;2022-08-19T00:02:54;6.13;;;5.53;;
11187;SDS011;5650;52.700;7.306;2022-08-19T00:05:23;8.15;;;6.13;;
11187;SDS011;5650;52.700;7.306;2022-08-19T00:07:56;6.70;;;5.60;;
11187;SDS011;5650;52.700;7.306;2022-08-19T00:10:24;8.75;;;6.05;;
11187;SDS011;5650;52.700;7.306;2022-08-19T00:12:51;8.32;;;6.68;;
11187;SDS011;5650;52.700;7.306;2022-08-19T00:15:21;8.38;;;5.90;;
11187;SDS011;5650;52.700;7.306;2022-08-19T00:17:48;9.85;;;5.57;;
11187;SDS011;5650;52.700;7.306;2022-08-19T00:22:52;6.28;;;5.68;;
11187;SDS011;5650;52.700;7.306;2022-08-19T00:25:29;6.43;;;5.82;;
11187;SDS011;5650;52.700;7.306;2022-08-19T00:27:56;6.43;;;5.80;;
11187;SDS011;5650;52.700;7.306;2022-08-19T00:30:27;5.97;;;5.38;;
11187;SDS011;5650;52.700;7.306;2022-08-19T00:32:55;8.55;;;6.50;;
11187;SDS011;5650;52.700;7.306;2022-08-19T00:35:28;7.45;;;5.85;;
11187;SDS011;5650;52.700;7.306;2022-08-19T00:38:01;8.65;;;6.70;;
11187;SDS011;5650;52.700;7.306;2022-08-19T00:40:30;7.30;;;6.60;;
11187;SDS011;5650;52.700;7.306;2022-08-19T00:42:58;7.30;;;6.57;;
11187;SDS011;5650;52.700;7.306;2022-08-19T00:45:26;8.80;;;6.95;;
11187;SDS011;5650;52.700;7.306;2022-08-19T00:47:57;7.85;;;6.80;;
11187;SDS011;5650;52.700;7.306;2022-08-19T00:50:29;8.95;;;6.95;;
11187;SDS011;5650;52.700;7.306;2022-08-19T00:52:59;8.10;;;7.25;;
11187;SDS011;5650;52.700;7.306;2022-08-19T00:55:29;8.18;;;7.38;;
11187;SDS011;5650;52.700;7.306;2022-08-19T00:58:05;8.02;;;6.85;;
11187;SDS011;5650;52.700;7.306;2022-08-19T01:00:37;10.52;;;7.18;;
11187;SDS011;5650;52.700;7.306;2022-08-19T01:03:05;8.90;;;7.05;;
11187;SDS011;5650;52.700;7.306;2022-08-19T01:05:34;7.30;;;6.10;;
11187;SDS011;5650;52.700;7.306;2022-08-19T01:08:02;7.97;;;7.00;;
11187;SDS011;5650;52.700;7.306;2022-08-19T01:10:32;10.35;;;7.47;;
11187;SDS011;5650;52.700;7.306;2022-08-19T01:13:03;8.95;;;7.05;;
11187;SDS011;5650;52.700;7.306;2022-08-19T01:15:38;10.05;;;6.88;;
11187;SDS011;5650;52.700;7.306;2022-08-19T01:18:15;8.10;;;7.38;;
11187;SDS011;5650;52.700;7.306;2022-08-19T01:20:44;8.88;;;7.45;;
11187;SDS011;5650;52.700;7.306;2022-08-19T01:23:13;10.45;;;8.43;;
11187;SDS011;5650;52.700;7.306;2022-08-19T01:25:42;9.68;;;7.57;;
11187;SDS011;5650;52.700;7.306;2022-08-19T01:28:15;9.77;;;8.05;;
11187;SDS011;5650;52.700;7.306;2022-08-19T01:30:44;10.43;;;8.38;;
11187;SDS011;5650;52.700;7.306;2022-08-19T01:33:17;8.35;;;7.60;;
11187;SDS011;5650;52.700;7.306;2022-08-19T01:35:45;10.23;;;7.15;;
11187;SDS011;5650;52.700;7.306;2022-08-19T01:38:21;9.10;;;6.80;;
11187;SDS011;5650;52.700;7.306;2022-08-19T01:40:52;7.10;;;6.50;;
11187;SDS011;5650;52.700;7.306;2022-08-19T01:43:19;7.78;;;7.07;;
11187;SDS011;5650;52.700;7.306;2022-08-19T01:45:49;10.68;;;7.68;;
11187;SDS011;5650;52.700;7.306;2022-08-19T01:48:20;11.35;;;7.90;;
11187;SDS011;5650;52.700;7.306;2022-08-19T01:50:48;7.65;;;6.90;;
11187;SDS011;5650;52.700;7.306;2022-08-19T01:53:16;8.00;;;7.25;;
11187;SDS011;5650;52.700;7.306;2022-08-19T01:55:44;9.20;;;7.65;;
11187;SDS011;5650;52.700;7.306;2022-08-19T01:58:17;12.23;;;7.75;;
11187;SDS011;5650;52.700;7.306;2022-08-19T02:00:48;11.10;;;8.65;;
11187;SDS011;5650;52.700;7.306;2022-08-19T02:03:16;9.73;;;8.63;;
11187;SDS011;5650;52.700;7.306;2022-08-19T02:05:46;10.88;;;8.32;;
11187;SDS011;5650;52.700;7.306;2022-08-19T02:08:15;9.32;;;8.35;;
11187;SDS011;5650;52.700;7.306;2022-08-19T02:10:43;11.90;;;8.88;;
11187;SDS011;5650;52.700;7.306;2022-08-19T02:13:11;8.73;;;7.72;;
11187;SDS011;5650;52.700;7.306;2022-08-19T02:15:41;9.13;;;8.23;;
11187;SDS011;5650;52.700;7.306;2022-08-19T02:18:08;9.65;;;8.75;;
11187;SDS011;5650;52.700;7.306;2022-08-19T02:20:39;10.40;;;9.30;;
11187;SDS011;5650;52.700;7.306;2022-08-19T02:23:07;10.85;;;8.63;;
11187;SDS011;5650;52.700;7.306;2022-08-19T02:25:35;8.38;;;7.68;;
11187;SDS011;5650;52.700;7.306;2022-08-19T02:28:07;11.85;;;8.20;;
11187;SDS011;5650;52.700;7.306;2022-08-19T02:30:34;9.88;;;8.48;;
11187;SDS011;5650;52.700;7.306;2022-08-19T02:33:02;9.27;;;8.30;;
11187;SDS011;5650;52.700;7.306;2022-08-19T02:35:32;9.82;;;8.43;;
11187;SDS011;5650;52.700;7.306;2022-08-19T02:37:59;9.00;;;7.85;;
11187;SDS011;5650;52.700;7.306;2022-08-19T02:40:47;8.27;;;7.57;;
11187;SDS011;5650;52.700;7.306;2022-08-19T02:43:18;8.05;;;7.35;;
11187;SDS011;5650;52.700;7.306;2022-08-19T02:45:46;9.00;;;8.10;;
11187;SDS011;5650;52.700;7.306;2022-08-19T02:48:18;8.90;;;8.10;;
11187;SDS011;5650;52.700;7.306;2022-08-19T02:50:50;7.60;;;6.90;;
11187;SDS011;5650;52.700;7.306;2022-08-19T02:53:21;8.52;;;7.38;;
11187;SDS011;5650;52.700;7.306;2022-08-19T02:55:49;11.32;;;7.20;;
11187;SDS011;5650;52.700;7.306;2022-08-19T02:58:21;12.60;;;7.07;;
11187;SDS011;5650;52.700;7.306;2022-08-19T03:00:52;8.45;;;6.57;;
11187;SDS011;5650;52.700;7.306;2022-08-19T03:03:21;8.30;;;7.43;;
11187;SDS011;5650;52.700;7.306;2022-08-19T03:06:01;8.10;;;7.40;;
11187;SDS011;5650;52.700;7.306;2022-08-19T03:08:30;7.97;;;7.15;;
11187;SDS011;5650;52.700;7.306;2022-08-19T03:10:57;8.20;;;7.50;;
11187;SDS011;5650;52.700;7.306;2022-08-19T03:13:29;7.80;;;7.00;;
11187;SDS011;5650;52.700;7.306;2022-08-19T03:15:56;8.00;;;7.20;;
11187;SDS011;5650;52.700;7.306;2022-08-19T03:18:30;8.75;;;7.75;;
11187;SDS011;5650;52.700;7.306;2022-08-19T03:20:57;7.97;;;7.25;;
11187;SDS011;5650;52.700;7.306;2022-08-19T03:23:27;7.75;;;6.97;;
11187;SDS011;5650;52.700;7.306;2022-08-19T03:25:54;7.88;;;7.13;;
11187;SDS011;5650;52.700;7.306;2022-08-19T03:28:25;9.48;;;7.63;;
11187;SDS011;5650;52.700;7.306;2022-08-19T03:30:57;7.70;;;6.95;;
11187;SDS011;5650;52.700;7.306;2022-08-19T03:33:26;9.15;;;7.40;;
11187;SDS011;5650;52.700;7.306;2022-08-19T03:36:03;9.13;;;7.18;;
11187;SDS011;5650;52.700;7.306;2022-08-19T03:38:33;7.60;;;6.90;;
11187;SDS011;5650;52.700;7.306;2022-08-19T03:41:02;7.70;;;6.80;;
11187;SDS011;5650;52.700;7.306;2022-08-19T03:43:33;7.10;;;6.50;;
11187;SDS011;5650;52.700;7.306;2022-08-19T03:46:06;8.27;;;7.10;;
11187;SDS011;5650;52.700;7.306;2022-08-19T03:48:34;8.57;;;6.53;;
11187;SDS011;5650;52.700;7.306;2022-08-19T03:51:06;7.30;;;6.60;;
11187;SDS011;5650;52.700;7.306;2022-08-19T03:53:34;9.15;;;7.10;;
11187;SDS011;5650;52.700;7.306;2022-08-19T03:56:05;9.35;;;7.30;;
11187;SDS011;5650;52.700;7.306;2022-08-19T03:58:36;7.72;;;7.03;;
11187;SDS011;5650;52.700;7.306;2022-08-19T04:01:06;11.40;;;7.57;;
11187;SDS011;5650;52.700;7.306;2022-08-19T04:03:36;8.40;;;6.47;;
11187;SDS011;5650;52.700;7.306;2022-08-19T04:06:12;6.85;;;6.25;;
11187;SDS011;5650;52.700;7.306;2022-08-19T04:08:44;8.88;;;6.93;;
11187;SDS011;5650;52.700;7.306;2022-08-19T04:11:18;7.75;;;6.97;;
11187;SDS011;5650;52.700;7.306;2022-08-19T04:13:58;8.02;;;7.10;;
11187;SDS011;5650;52.700;7.306;2022-08-19T04:16:26;8.48;;;6.95;;
11187;SDS011;5650;52.700;7.306;2022-08-19T04:18:56;8.45;;;7.65;;
11187;SDS011;5650;52.700;7.306;2022-08-19T04:21:26;8.40;;;7.40;;
11187;SDS011;5650;52.700;7.306;2022-08-19T04:23:54;7.90;;;7.13;;
11187;SDS011;5650;52.700;7.306;2022-08-19T04:26:23;10.73;;;8.05;;
11187;SDS011;5650;52.700;7.306;2022-08-19T04:28:53;11.35;;;9.50;;
11187;SDS011;5650;52.700;7.306;2022-08-19T04:31:23;10.05;;;8.95;;
11187;SDS011;5650;52.700;7.306;2022-08-19T04:33:52;12.80;;;10.88;;
11187;SDS011;5650;52.700;7.306;2022-08-19T04:36:22;14.75;;;11.05;;
11187;SDS011;5650;52.700;7.306;2022-08-19T04:38:53;10.68;;;9.68;;
11187;SDS011;5650;52.700;7.306;2022-08-19T04:41:21;13.10;;;10.60;;
11187;SDS011;5650;52.700;7.306;2022-08-19T04:44:05;12.73;;;10.73;;
11187;SDS011;5650;52.700;7.306;2022-08-19T04:46:35;12.95;;;11.55;;
11187;SDS011;5650;52.700;7.306;2022-08-19T04:49:02;12.23;;;10.95;;
11187;SDS011;5650;52.700;7.306;2022-08-19T04:51:31;11.63;;;10.52;;
11187;SDS011;5650;52.700;7.306;2022-08-19T04:54:01;14.30;;;12.60;;
11187;SDS011;5650;52.700;7.306;2022-08-19T04:56:28;12.07;;;10.93;;
11187;SDS011;5650;52.700;7.306;2022-08-19T04:58:56;14.05;;;11.25;;
11187;SDS011;5650;52.700;7.306;2022-08-19T05:01:28;13.65;;;12.20;;
11187;SDS011;5650;52.700;7.306;2022-08-19T05:03:58;14.77;;;12.98;;
11187;SDS011;5650;52.700;7.306;2022-08-19T05:06:30;16.48;;;12.82;;
11187;SDS011;5650;52.700;7.306;2022-08-19T05:08:58;13.40;;;11.95;;
11187;SDS011;5650;52.700;7.306;2022-08-19T05:11:27;13.63;;;11.68;;
11187;SDS011;5650;52.700;7.306;2022-08-19T05:13:56;13.90;;;12.52;;
11187;SDS011;5650;52.700;7.306;2022-08-19T05:16:24;15.05;;;13.48;;
11187;SDS011;5650;52.700;7.306;2022-08-19T05:18:52;15.02;;;13.02;;
11187;SDS011;5650;52.700;7.306;2022-08-19T05:21:38;13.90;;;12.60;;
11187;SDS011;5650;52.700;7.306;2022-08-19T05:24:24;14.65;;;13.23;;
11187;SDS011;5650;52.700;7.306;2022-08-19T05:26:51;16.15;;;13.88;;
11187;SDS011;5650;52.700;7.306;2022-08-19T05:29:22;16.25;;;14.63;;
11187;SDS011;5650;52.700;7.306;2022-08-19T05:31:53;18.85;;;13.70;;
11187;SDS011;5650;52.700;7.306;2022-08-19T05:34:22;14.20;;;12.80;;
11187;SDS011;5650;52.700;7.306;2022-08-19T05:36:55;14.35;;;12.88;;
11187;SDS011;5650;52.700;7.306;2022-08-19T05:39:31;14.13;;;11.88;;
11187;SDS011;5650;52.700;7.306;2022-08-19T05:42:03;10.73;;;9.73;;
11187;SDS011;5650;52.700;7.306;2022-08-19T05:44:36;9.60;;;8.55;;
11187;SDS011;5650;52.700;7.306;2022-08-19T05:47:09;10.40;;;8.13;;
11187;SDS011;5650;52.700;7.306;2022-08-19T05:49:41;9.07;;;7.57;;
11187;SDS011;5650;52.700;7.306;2022-08-19T05:52:10;8.88;;;6.65;;
11187;SDS011;5650;52.700;7.306;2022-08-19T05:54:40;8.38;;;7.53;;
11187;SDS011;5650;52.700;7.306;2022-08-19T05:57:08;8.20;;;7.43;;
11187;SDS011;5650;52.700;7.306;2022-08-19T05:59:35;10.18;;;7.32;;
11187;SDS011;5650;52.700;7.306;2022-08-19T06:02:03;8.77;;;7.97;;
11187;SDS011;5650;52.700;7.306;2022-08-19T06:04:32;9.05;;;8.15;;
11187;SDS011;5650;52.700;7.306;2022-08-19T06:07:02;10.05;;;7.82;;
11187;SDS011;5650;52.700;7.306;2022-08-19T06:09:31;11.23;;;10.15;;
11187;SDS011;5650;52.700;7.306;2022-08-19T06:11:58;11.40;;;10.20;;
11187;SDS011;5650;52.700;7.306;2022-08-19T06:14:27;10.90;;;9.60;;
11187;SDS011;5650;52.700;7.306;2022-08-19T06:16:56;11.82;;;10.18;;
11187;SDS011;5650;52.700;7.306;2022-08-19T06:19:27;11.52;;;9.48;;
11187;SDS011;5650;52.700;7.306;2022-08-19T06:22:01;11.65;;;10.35;;
11187;SDS011;5650;52.700;7.306;2022-08-19T06:27:17;12.98;;;11.60;;
11187;SDS011;5650;52.700;7.306;2022-08-19T06:29:47;14.63;;;13.15;;
11187;SDS011;5650;52.700;7.306;2022-08-19T06:32:15;14.07;;;12.57;;
11187;SDS011;5650;52.700;7.306;2022-08-19T06:34:45;13.35;;;10.95;;
11187;SDS011;5650;52.700;7.306;2022-08-19T06:37:13;12.85;;;11.68;;
11187;SDS011;5650;52.700;7.306;2022-08-19T06:39:42;20.33;;;12.60;;
11187;SDS011;5650;52.700;7.306;2022-08-19T06:42:14;13.73;;;11.43;;
11187;SDS011;5650;52.700;7.306;2022-08-19T06:44:44;14.38;;;12.02;;
11187;SDS011;5650;52.700;7.306;2022-08-19T06:47:14;16.20;;;11.75;;
11187;SDS011;5650;52.700;7.306;2022-08-19T06:49:43;15.23;;;11.88;;
11187;SDS011;5650;52.700;7.306;2022-08-19T06:52:13;18.83;;;12.25;;
11187;SDS011;5650;52.700;7.306;2022-08-19T06:54:46;13.90;;;10.65;;
11187;SDS011;5650;52.700;7.306;2022-08-19T06:57:28;11.02;;;9.93;;
11187;SDS011;5650;52.700;7.306;2022-08-19T06:59:57;24.70;;;9.70;;
11187;SDS011;5650;52.700;7.306;2022-08-19T07:02:25;9.65;;;8.70;;
11187;SDS011;5650;52.700;7.306;2022-08-19T07:04:52;11.32;;;9.60;;
11187;SDS011;5650;52.700;7.306;2022-08-19T07:07:30;9.88;;;8.43;;
11187;SDS011;5650;52.700;7.306;2022-08-19T07:10:01;19.55;;;8.80;;
11187;SDS011;5650;52.700;7.306;2022-08-19T07:12:31;9.18;;;7.88;;
11187;SDS011;5650;52.700;7.306;2022-08-19T07:14:59;13.20;;;8.25;;
11187;SDS011;5650;52.700;7.306;2022-08-19T07:17:32;10.25;;;7.88;;
11187;SDS011;5650;52.700;7.306;2022-08-19T07:20:00;11.07;;;8.10;;
11187;SDS011;5650;52.700;7.306;2022-08-19T07:22:27;8.45;;;7.40;;
11187;SDS011;5650;52.700;7.306;2022-08-19T07:24:57;9.10;;;7.53;;
11187;SDS011;5650;52.700;7.306;2022-08-19T07:27:27;7.95;;;7.15;;
11187;SDS011;5650;52.700;7.306;2022-08-19T07:29:59;8.05;;;6.97;;
11187;SDS011;5650;52.700;7.306;2022-08-19T07:32:34;8.15;;;6.53;;
11187;SDS011;5650;52.700;7.306;2022-08-19T07:35:00;8.13;;;6.85;;
11187;SDS011;5650;52.700;7.306;2022-08-19T07:37:28;10.23;;;6.72;;
11187;SDS011;5650;52.700;7.306;2022-08-19T07:39:57;7.65;;;6.68;;
11187;SDS011;5650;52.700;7.306;2022-08-19T07:42:34;10.23;;;7.00;;
11187;SDS011;5650;52.700;7.306;2022-08-19T07:45:03;11.30;;;6.88;;
11187;SDS011;5650;52.700;7.306;2022-08-19T07:47:37;10.70;;;6.53;;
11187;SDS011;5650;52.700;7.306;2022-08-19T07:50:08;10.95;;;7.57;;
11187;SDS011;5650;52.700;7.306;2022-08-19T07:52:36;8.95;;;6.75;;
11187;SDS011;5650;52.700;7.306;2022-08-19T07:55:18;7.70;;;6.50;;
11187;SDS011;5650;52.700;7.306;2022-08-19T07:57:48;10.73;;;7.10;;
11187;SDS011;5650;52.700;7.306;2022-08-19T08:00:18;7.47;;;6.60;;
11187;SDS011;5650;52.700;7.306;2022-08-19T08:02:46;8.80;;;6.65;;
11187;SDS011;5650;52.700;7.306;2022-08-19T08:05:13;10.40;;;6.60;;
11187;SDS011;5650;52.700;7.306;2022-08-19T08:07:57;12.50;;;7.13;;
11187;SDS011;5650;52.700;7.306;2022-08-19T08:10:41;9.35;;;6.93;;
11187;SDS011;5650;52.700;7.306;2022-08-19T08:13:09;9.43;;;6.50;;
11187;SDS011;5650;52.700;7.306;2022-08-19T08:15:39;9.18;;;7.10;;
11187;SDS011;5650;52.700;7.306;2022-08-19T08:18:06;7.65;;;6.82;;
11187;SDS011;5650;52.700;7.306;2022-08-19T08:20:37;6.38;;;5.72;;
11187;SDS011;5650;52.700;7.306;2022-08-19T08:23:04;7.43;;;5.78;;
11187;SDS011;5650;52.700;7.306;2022-08-19T08:25:50;7.82;;;5.35;;
11187;SDS011;5650;52.700;7.306;2022-08-19T08:28:22;7.28;;;5.38;;
11187;SDS011;5650;52.700;7.306;2022-08-19T08:30:54;8.65;;;5.78;;
11187;SDS011;5650;52.700;7.306;2022-08-19T08:33:23;7.68;;;5.10;;
11187;SDS011;5650;52.700;7.306;2022-08-19T08:35:54;9.77;;;4.93;;
11187;SDS011;5650;52.700;7.306;2022-08-19T08:38:22;5.75;;;4.95;;
11187;SDS011;5650;52.700;7.306;2022-08-19T08:40:56;6.90;;;5.32;;
11187;SDS011;5650;52.700;7.306;2022-08-19T08:43:34;8.63;;;5.90;;
11187;SDS011;5650;52.700;7.306;2022-08-19T08:46:05;8.57;;;5.72;;
11187;SDS011;5650;52.700;7.306;2022-08-19T08:48:41;8.23;;;6.15;;
11187;SDS011;5650;52.700;7.306;2022-08-19T08:51:16;9.18;;;5.93;;
11187;SDS011;5650;52.700;7.306;2022-08-19T08:53:46;7.40;;;5.88;;
11187;SDS011;5650;52.700;7.306;2022-08-19T08:56:17;8.90;;;6.38;;
11187;SDS011;5650;52.700;7.306;2022-08-19T08:58:49;8.50;;;6.57;;
11187;SDS011;5650;52.700;7.306;2022-08-19T09:01:25;9.60;;;7.03;;
11187;SDS011;5650;52.700;7.306;2022-08-19T09:03:53;14.63;;;5.85;;
11187;SDS011;5650;52.700;7.306;2022-08-19T09:06:22;6.20;;;5.60;;
11187;SDS011;5650;52.700;7.306;2022-08-19T09:08:59;7.57;;;5.55;;
11187;SDS011;5650;52.700;7.306;2022-08-19T09:11:36;7.57;;;5.78;;
11187;SDS011;5650;52.700;7.306;2022-08-19T09:14:19;8.57;;;5.82;;
11187;SDS011;5650;52.700;7.306;2022-08-19T09:16:59;7.63;;;5.57;;
11187;SDS011;5650;52.700;7.306;2022-08-19T09:19:28;7.38;;;4.40;;
11187;SDS011;5650;52.700;7.306;2022-08-19T09:21:56;7.68;;;5.00;;
11187;SDS011;5650;52.700;7.306;2022-08-19T09:24:25;7.78;;;4.50;;
11187;SDS011;5650;52.700;7.306;2022-08-19T09:26:52;6.15;;;4.35;;
11187;SDS011;5650;52.700;7.306;2022-08-19T09:29:20;5.97;;;5.05;;
11187;SDS011;5650;52.700;7.306;2022-08-19T09:31:50;9.95;;;5.30;;
11187;SDS011;5650;52.700;7.306;2022-08-19T09:34:21;4.35;;;3.95;;
11187;SDS011;5650;52.700;7.306;2022-08-19T09:36:49;12.32;;;4.57;;
11187;SDS011;5650;52.700;7.306;2022-08-19T09:39:18;5.50;;;4.13;;
11187;SDS011;5650;52.700;7.306;2022-08-19T09:41:47;5.38;;;3.53;;
11187;SDS011;5650;52.700;7.306;2022-08-19T09:44:21;6.40;;;5.03;;
11187;SDS011;5650;52.700;7.306;2022-08-19T09:46:48;5.32;;;4.43;;
11187;SDS011;5650;52.700;7.306;2022-08-19T09:49:22;6.70;;;4.03;;
11187;SDS011;5650;52.700;7.306;2022-08-19T09:51:50;4.80;;;3.60;;
11187;SDS011;5650;52.700;7.306;2022-08-19T09:54:21;3.95;;;3.33;;
11187;SDS011;5650;52.700;7.306;2022-08-19T09:56:48;7.43;;;4.22;;
11187;SDS011;5650;52.700;7.306;2022-08-19T09:59:16;6.32;;;4.38;;
11187;SDS011;5650;52.700;7.306;2022-08-19T10:04:34;6.80;;;2.97;;
11187;SDS011;5650;52.700;7.306;2022-08-19T10:07:15;3.33;;;3.03;;
11187;SDS011;5650;52.700;7.306;2022-08-19T10:09:42;7.20;;;2.95;;
11187;SDS011;5650;52.700;7.306;2022-08-19T10:12:09;7.53;;;3.95;;
11187;SDS011;5650;52.700;7.306;2022-08-19T10:14:36;6.78;;;4.75;;
11187;SDS011;5650;52.700;7.306;2022-08-19T10:17:04;4.55;;;3.40;;
11187;SDS011;5650;52.700;7.306;2022-08-19T10:19:31;6.22;;;4.95;;
11187;SDS011;5650;52.700;7.306;2022-08-19T10:22:04;4.25;;;3.35;;
11187;SDS011;5650;52.700;7.306;2022-08-19T10:24:32;4.53;;;3.72;;
11187;SDS011;5650;52.700;7.306;2022-08-19T10:27:00;7.20;;;4.40;;
11187;SDS011;5650;52.700;7.306;2022-08-19T10:29:34;5.32;;;4.10;;
11187;SDS011;5650;52.700;7.306;2022-08-19T10:32:03;7.03;;;4.00;;
11187;SDS011;5650;52.700;7.306;2022-08-19T10:34:33;5.13;;;4.63;;
11187;SDS011;5650;52.700;7.306;2022-08-19T10:37:01;8.15;;;4.60;;
11187;SDS011;5650;52.700;7.306;2022-08-19T10:39:31;7.40;;;4.47;;
11187;SDS011;5650;52.700;7.306;2022-08-19T10:42:05;6.50;;;4.50;;
11187;SDS011;5650;52.700;7.306;2022-08-19T10:44:35;7.40;;;4.18;;
11187;SDS011;5650;52.700;7.306;2022-08-19T10:47:03;5.25;;;4.75;;
11187;SDS011;5650;52.700;7.306;2022-08-19T10:49:30;6.65;;;5.70;;
11187;SDS011;5650;52.700;7.306;2022-08-19T10:52:19;8.23;;;6.18;;
11187;SDS011;5650;52.700;7.306;2022-08-19T10:55:02;5.80;;;4.75;;
11187;SDS011;5650;52.700;7.306;2022-08-19T10:57:48;6.65;;;5.22;;
11187;SDS011;5650;52.700;7.306;2022-08-19T11:00:15;5.57;;;4.57;;
11187;SDS011;5650;52.700;7.306;2022-08-19T11:02:43;5.85;;;5.28;;
11187;SDS011;5650;52.700;7.306;2022-08-19T11:05:11;7.05;;;6.10;;
11187;SDS011;5650;52.700;7.306;2022-08-19T11:07:41;6.82;;;5.80;;
11187;SDS011;5650;52.700;7.306;2022-08-19T11:10:11;8.43;;;7.07;;
11187;SDS011;5650;52.700;7.306;2022-08-19T11:12:42;6.70;;;4.07;;
11187;SDS011;5650;52.700;7.306;2022-08-19T11:15:10;7.32;;;4.05;;
11187;SDS011;5650;52.700;7.306;2022-08-19T11:17:40;6.65;;;4.47;;
11187;SDS011;5650;52.700;7.306;2022-08-19T11:20:14;7.97;;;4.30;;
11187;SDS011;5650;52.700;7.306;2022-08-19T11:22:43;3.92;;;3.47;;
11187;SDS011;5650;52.700;7.306;2022-08-19T11:25:10;6.15;;;3.58;;
11187;SDS011;5650;52.700;7.306;2022-08-19T11:27:38;7.15;;;4.05;;
11187;SDS011;5650;52.700;7.306;2022-08-19T11:30:18;6.15;;;4.85;;
11187;SDS011;5650;52.700;7.306;2022-08-19T11:32:45;5.35;;;4.00;;
11187;SDS011;5650;52.700;7.306;2022-08-19T11:35:12;3.90;;;3.58;;
11187;SDS011;5650;52.700;7.306;2022-08-19T11:37:40;6.28;;;4.10;;
11187;SDS011;5650;52.700;7.306;2022-08-19T11:40:18;4.55;;;3.20;;
11187;SDS011;5650;52.700;7.306;2022-08-19T11:42:45;4.35;;;2.88;;
11187;SDS011;5650;52.700;7.306;2022-08-19T11:45:22;4.35;;;3.95;;
11187;SDS011;5650;52.700;7.306;2022-08-19T11:47:52;6.32;;;3.63;;
11187;SDS011;5650;52.700;7.306;2022-08-19T11:50:20;3.40;;;3.10;;
11187;SDS011;5650;52.700;7.306;2022-08-19T11:52:49;5.38;;;4.07;;
11187;SDS011;5650;52.700;7.306;2022-08-19T11:55:19;5.40;;;3.42;;
11187;SDS011;5650;52.700;7.306;2022-08-19T11:57:46;7.18;;;3.55;;
11187;SDS011;5650;52.700;7.306;2022-08-19T12:00:14;3.65;;;3.13;;
11187;SDS011;5650;52.700;7.306;2022-08-19T12:02:41;9.93;;;3.75;;
11187;SDS011;5650;52.700;7.306;2022-08-19T12:05:08;5.32;;;3.55;;
11187;SDS011;5650;52.700;7.306;2022-08-19T12:07:36;4.15;;;2.95;;
11187;SDS011;5650;52.700;7.306;2022-08-19T12:10:08;3.97;;;3.00;;
11187;SDS011;5650;52.700;7.306;2022-08-19T12:12:35;5.05;;;3.50;;
11187;SDS011;5650;52.700;7.306;2022-08-19T12:15:05;5.82;;;4.20;;
11187;SDS011;5650;52.700;7.306;2022-08-19T12:17:36;5.00;;;3.60;;
11187;SDS011;5650;52.700;7.306;2022-08-19T12:20:08;4.72;;;4.00;;
11187;SDS011;5650;52.700;7.306;2022-08-19T12:22:38;4.93;;;3.90;;
11187;SDS011;5650;52.700;7.306;2022-08-19T12:25:09;6.68;;;5.20;;
11187;SDS011;5650;52.700;7.306;2022-08-19T12:27:37;7.25;;;4.30;;
11187;SDS011;5650;52.700;7.306;2022-08-19T12:30:12;5.15;;;4.55;;
11187;SDS011;5650;52.700;7.306;2022-08-19T12:32:40;6.25;;;4.43;;
11187;SDS011;5650;52.700;7.306;2022-08-19T12:35:07;5.97;;;4.38;;
11187;SDS011;5650;52.700;7.306;2022-08-19T12:37:36;6.18;;;3.92;;
11187;SDS011;5650;52.700;7.306;2022-08-19T12:40:04;5.40;;;4.88;;
11187;SDS011;5650;52.700;7.306;2022-08-19T12:42:43;7.38;;;5.03;;
11187;SDS011;5650;52.700;7.306;2022-08-19T12:45:12;8.05;;;4.07;;
11187;SDS011;5650;52.700;7.306;2022-08-19T12:47:39;4.78;;;4.15;;
11187;SDS011;5650;52.700;7.306;2022-08-19T12:50:09;6.85;;;4.30;;
11187;SDS011;5650;52.700;7.306;2022-08-19T12:52:36;5.38;;;4.45;;
11187;SDS011;5650;52.700;7.306;2022-08-19T12:55:10;4.63;;;3.55;;
11187;SDS011;5650;52.700;7.306;2022-08-19T12:57:44;10.57;;;7.20;;
11187;SDS011;5650;52.700;7.306;2022-08-19T13:00:14;16.60;;;10.73;;
11187;SDS011;5650;52.700;7.306;2022-08-19T13:02:46;18.42;;;10.13;;
11187;SDS011;5650;52.700;7.306;2022-08-19T13:05:16;11.48;;;8.20;;
11187;SDS011;5650;52.700;7.306;2022-08-19T13:07:47;6.43;;;4.95;;
11187;SDS011;5650;52.700;7.306;2022-08-19T13:10:16;7.18;;;4.78;;
11187;SDS011;5650;52.700;7.306;2022-08-19T13:12:50;4.82;;;3.95;;
11187;SDS011;5650;52.700;7.306;2022-08-19T13:15:19;6.60;;;4.18;;
11187;SDS011;5650;52.700;7.306;2022-08-19T13:17:48;5.70;;;3.80;;
11187;SDS011;5650;52.700;7.306;2022-08-19T13:20:17;4.28;;;3.67;;
11187;SDS011;5650;52.700;7.306;2022-08-19T13:22:52;4.15;;;3.75;;
11187;SDS011;5650;52.700;7.306;2022-08-19T13:25:20;6.93;;;4.35;;
11187;SDS011;5650;52.700;7.306;2022-08-19T13:27:52;6.88;;;4.32;;
11187;SDS011;5650;52.700;7.306;2022-08-19T13:30:20;5.07;;;3.75;;
11187;SDS011;5650;52.700;7.306;2022-08-19T13:33:05;4.75;;;4.28;;
11187;SDS011;5650;52.700;7.306;2022-08-19T13:35:40;4.75;;;3.97;;
11187;SDS011;5650;52.700;7.306;2022-08-19T13:38:13;3.83;;;3.33;;
11187;SDS011;5650;52.700;7.306;2022-08-19T13:40:41;6.57;;;4.20;;
11187;SDS011;5650;52.700;7.306;2022-08-19T13:43:13;6.78;;;4.40;;
11187;SDS011;5650;52.700;7.306;2022-08-19T13:45:40;6.55;;;4.40;;
11187;SDS011;5650;52.700;7.306;2022-08-19T13:48:07;6.20;;;4.40;;
11187;SDS011;5650;52.700;7.306;2022-08-19T13:50:38;9.57;;;5.22;;
11187;SDS011;5650;52.700;7.306;2022-08-19T13:53:07;5.32;;;4.82;;
11187;SDS011;5650;52.700;7.306;2022-08-19T13:55:35;5.32;;;4.82;;
11187;SDS011;5650;52.700;7.306;2022-08-19T13:58:03;8.60;;;5.43;;
11187;SDS011;5650;52.700;7.306;2022-08-19T14:00:40;9.15;;;4.93;;
11187;SDS011;5650;52.700;7.306;2022-08-19T14:03:09;5.85;;;4.50;;
11187;SDS011;5650;52.700;7.306;2022-08-19T14:05:39;7.65;;;4.60;;
11187;SDS011;5650;52.700;7.306;2022-08-19T14:08:09;5.38;;;4.85;;
11187;SDS011;5650;52.700;7.306;2022-08-19T14:10:39;7.85;;;5.07;;
11187;SDS011;5650;52.700;7.306;2022-08-19T14:13:12;9.48;;;5.18;;
11187;SDS011;5650;52.700;7.306;2022-08-19T14:15:42;5.78;;;5.18;;
11187;SDS011;5650;52.700;7.306;2022-08-19T14:18:10;6.65;;;4.10;;
11187;SDS011;5650;52.700;7.306;2022-08-19T14:20:40;7.20;;;4.70;;
11187;SDS011;5650;52.700;7.306;2022-08-19T14:23:07;4.75;;;4.07;;
11187;SDS011;5650;52.700;7.306;2022-08-19T14:25:42;6.05;;;4.85;;
11187;SDS011;5650;52.700;7.306;2022-08-19T14:28:09;6.57;;;4.13;;
11187;SDS011;5650;52.700;7.306;2022-08-19T14:30:44;7.18;;;4.40;;
11187;SDS011;5650;52.700;7.306;2022-08-19T14:33:14;6.35;;;4.55;;
11187;SDS011;5650;52.700;7.306;2022-08-19T14:35:41;7.80;;;4.68;;
11187;SDS011;5650;52.700;7.306;2022-08-19T14:38:14;6.65;;;4.43;;
11187;SDS011;5650;52.700;7.306;2022-08-19T14:40:43;6.50;;;4.28;;
11187;SDS011;5650;52.700;7.306;2022-08-19T14:43:13;4.03;;;3.63;;
11187;SDS011;5650;52.700;7.306;2022-08-19T14:45:54;4.63;;;3.90;;
11187;SDS011;5650;52.700;7.306;2022-08-19T14:48:25;6.93;;;4.47;;
11187;SDS011;5650;52.700;7.306;2022-08-19T14:53:54;5.78;;;4.25;;
11187;SDS011;5650;52.700;7.306;2022-08-19T14:56:28;5.07;;;4.47;;
11187;SDS011;5650;52.700;7.306;2022-08-19T14:58:59;5.68;;;4.10;;
11187;SDS011;5650;52.700;7.306;2022-08-19T15:01:34;5.70;;;4.75;;
11187;SDS011;5650;52.700;7.306;2022-08-19T15:04:01;9.13;;;4.25;;
11187;SDS011;5650;52.700;7.306;2022-08-19T15:06:31;8.38;;;4.40;;
11187;SDS011;5650;52.700;7.306;2022-08-19T15:08:58;7.22;;;3.83;;
11187;SDS011;5650;52.700;7.306;2022-08-19T15:11:28;4.50;;;3.83;;
11187;SDS011;5650;52.700;7.306;2022-08-19T15:13:58;5.43;;;3.75;;
11187;SDS011;5650;52.700;7.306;2022-08-19T15:16:26;8.35;;;3.95;;
11187;SDS011;5650;52.700;7.306;2022-08-19T15:18:56;4.75;;;3.55;;
11187;SDS011;5650;52.700;7.306;2022-08-19T15:21:25;5.35;;;3.97;;
11187;SDS011;5650;52.700;7.306;2022-08-19T15:23:53;21.38;;;3.90;;
11187;SDS011;5650;52.700;7.306;2022-08-19T15:26:24;6.65;;;4.88;;